Main page
METAR-TAF:

METAR-TAF

Airports :

Brownwood Regional Airport

Brownwood, Texas, United States

latitude: 31-48N, longitude: 098-57W, elevation: 1384 ft

Current weather observation

The report was made 29 minutes ago, at 14:35 UTC
Wind 3 mph from the Northeast
Temperature 72°F
Humidity 83%
Pressure 30.08 in. Hg
Visibility: 10 miles
Overcast at a height of 1300 ft

METAR: KBWD 211435Z AUTO 04003KT 10SM OVC013 22/19 A3008 RMK AO2

Time: 10:04 (15:04 UTC)


TAF: missing

Weather observations and forecasts of more than 4000 airports (METAR and TAF reports).

The available stations are represented by yellow and red dots on the map.

Hover mouse over dot to see the name of the station.

Then click to see weather observations and forecasts.

To change the map : click on the green buttons with a black cross to zoom in, on the green button with a dash to zoom out, or on the green arrows for adjacent maps.


METAR-TAF: